createdAt,value
2022-08-14T00:01:24.662Z,0.8
2022-08-14T00:15:24.620Z,0.8
2022-08-14T00:29:25.157Z,0.2
2022-08-14T00:43:24.635Z,0.4
2022-08-14T00:57:24.616Z,0
2022-08-14T01:11:24.642Z,0.2
2022-08-14T01:25:24.618Z,0
2022-08-14T01:39:24.650Z,0
2022-08-14T01:53:24.631Z,0
2022-08-14T02:07:27.361Z,0.6
2022-08-14T02:21:24.652Z,0.8
2022-08-14T02:35:26.501Z,0
2022-08-14T02:49:25.290Z,0.2
2022-08-14T03:03:24.678Z,0
2022-08-14T03:17:24.650Z,0.8
2022-08-14T03:31:26.183Z,0
2022-08-14T03:45:28.087Z,0.2
2022-08-14T03:59:24.661Z,0
2022-08-14T04:14:24.757Z,0.8
2022-08-14T04:29:24.646Z,0
2022-08-14T04:44:26.449Z,0
2022-08-14T04:59:24.732Z,0
2022-08-14T05:14:43.175Z,0
2022-08-14T05:29:24.722Z,0
2022-08-14T05:44:29.275Z,0
2022-08-14T05:59:30.244Z,0
2022-08-14T06:14:24.945Z,0
2022-08-14T06:29:24.865Z,0
2022-08-14T06:44:30.468Z,0
2022-08-14T06:59:24.939Z,0.4
2022-08-14T07:14:25.030Z,0.8
2022-08-14T07:29:26.446Z,0.9
2022-08-14T07:44:29.904Z,0.4
2022-08-14T07:59:26.139Z,0.9
2022-08-14T08:14:25.073Z,0.8
2022-08-14T08:29:28.424Z,0.6
2022-08-14T08:44:31.511Z,0.9
2022-08-14T08:59:26.990Z,1.4
2022-08-14T09:14:25.057Z,1.1
2022-08-14T09:29:25.023Z,1.1
2022-08-14T09:44:25.058Z,1.1
2022-08-14T10:00:28.852Z,1.2
2022-08-14T10:16:26.109Z,1.0
2022-08-14T10:32:28.943Z,0.8
2022-08-14T10:48:35.548Z,1.0
2022-08-14T11:03:26.966Z,0.8
2022-08-14T11:18:30.423Z,1.1
2022-08-14T11:34:30.155Z,2.1
2022-08-14T11:50:34.216Z,1.3
2022-08-14T12:06:28.300Z,1.5
2022-08-14T12:22:29.988Z,0.8
2022-08-14T12:37:25.266Z,2.4
2022-08-14T12:52:30.630Z,1.9
2022-08-14T13:07:25.252Z,1.7
2022-08-14T13:22:29.430Z,1.6
2022-08-14T13:37:25.273Z,1.1
2022-08-14T13:52:48.827Z,1.9
2022-08-14T14:07:25.289Z,1.8
2022-08-14T14:22:36.215Z,1.5
2022-08-14T14:37:25.321Z,1.4
2022-08-14T14:52:27.410Z,1.1
2022-08-14T15:07:25.341Z,1.0
2022-08-14T15:22:25.481Z,0.9
2022-08-14T15:37:25.372Z,1.1
2022-08-14T15:52:32.213Z,0.8
2022-08-14T16:07:27.198Z,0.8
2022-08-14T16:22:57.777Z,0.4
2022-08-14T16:37:30.182Z,0.9
2022-08-14T16:52:44.645Z,0.6
2022-08-14T17:07:25.378Z,0
2022-08-14T17:22:26.849Z,1.0
2022-08-14T17:37:25.399Z,0.9
2022-08-14T17:52:35.023Z,0.9
2022-08-14T18:07:50.851Z,0.8
2022-08-14T18:22:31.959Z,0
2022-08-14T18:38:40.941Z,0
2022-08-14T18:53:25.536Z,0
2022-08-14T19:07:25.438Z,0
2022-08-14T19:21:25.472Z,0
2022-08-14T19:35:39.687Z,0
2022-08-14T19:50:07.616Z,0
2022-08-14T20:03:25.479Z,0
2022-08-14T20:17:25.610Z,0.6
2022-08-14T20:31:25.622Z,0
2022-08-14T20:45:27.330Z,0.8
2022-08-14T20:59:25.603Z,0.8
2022-08-14T21:14:18.749Z,0.2
2022-08-14T21:27:25.797Z,0
2022-08-14T21:41:42.105Z,0
2022-08-14T21:55:25.811Z,0
2022-08-14T22:09:32.533Z,0
2022-08-14T22:23:26.056Z,0.8
2022-08-14T22:37:25.832Z,0
2022-08-14T22:51:25.858Z,0
2022-08-14T23:05:39.294Z,0
2022-08-14T23:19:25.880Z,0
2022-08-14T23:33:25.871Z,0.8
2022-08-14T23:47:26.919Z,0.6
